sensor_id;sensor_type;location;lat;lon;timestamp;temperature;humidity
3075;DHT22;1548;51.716;8.748;2022-12-18T00:02:11;-4.30;83.90
3075;DHT22;1548;51.716;8.748;2022-12-18T00:04:37;-4.30;83.70
3075;DHT22;1548;51.716;8.748;2022-12-18T00:07:02;-4.30;83.80
3075;DHT22;1548;51.716;8.748;2022-12-18T00:09:28;-4.30;84.00
3075;DHT22;1548;51.716;8.748;2022-12-18T00:11:54;-4.50;83.70
3075;DHT22;1548;51.716;8.748;2022-12-18T00:14:19;-4.50;83.70
3075;DHT22;1548;51.716;8.748;2022-12-18T00:16:46;-4.40;83.90
3075;DHT22;1548;51.716;8.748;2022-12-18T00:19:12;-4.40;83.90
3075;DHT22;1548;51.716;8.748;2022-12-18T00:21:42;-4.30;84.00
3075;DHT22;1548;51.716;8.748;2022-12-18T00:24:09;-4.30;83.80
3075;DHT22;1548;51.716;8.748;2022-12-18T00:26:36;-4.30;83.90
3075;DHT22;1548;51.716;8.748;2022-12-18T00:29:13;-4.30;83.80
3075;DHT22;1548;51.716;8.748;2022-12-18T00:31:39;-4.20;84.10
3075;DHT22;1548;51.716;8.748;2022-12-18T00:34:05;-4.10;83.80
3075;DHT22;1548;51.716;8.748;2022-12-18T00:36:33;-4.10;83.80
3075;DHT22;1548;51.716;8.748;2022-12-18T00:39:02;-4.10;83.80
3075;DHT22;1548;51.716;8.748;2022-12-18T00:41:28;-4.10;83.60
3075;DHT22;1548;51.716;8.748;2022-12-18T00:44:14;-4.10;83.70
3075;DHT22;1548;51.716;8.748;2022-12-18T00:46:41;-4.10;83.70
3075;DHT22;1548;51.716;8.748;2022-12-18T00:49:08;-4.10;83.90
3075;DHT22;1548;51.716;8.748;2022-12-18T00:51:33;-4.10;83.80
3075;DHT22;1548;51.716;8.748;2022-12-18T00:53:59;-4.10;83.90
3075;DHT22;1548;51.716;8.748;2022-12-18T00:56:25;-4.10;83.80
3075;DHT22;1548;51.716;8.748;2022-12-18T00:58:50;-4.10;83.90
3075;DHT22;1548;51.716;8.748;2022-12-18T01:01:16;-4.00;83.80
3075;DHT22;1548;51.716;8.748;2022-12-18T01:03:42;-4.00;83.90
3075;DHT22;1548;51.716;8.748;2022-12-18T01:06:10;-4.10;83.80
3075;DHT22;1548;51.716;8.748;2022-12-18T01:08:37;-4.10;83.80
3075;DHT22;1548;51.716;8.748;2022-12-18T01:11:14;-4.00;83.80
3075;DHT22;1548;51.716;8.748;2022-12-18T01:13:40;-4.10;83.90
3075;DHT22;1548;51.716;8.748;2022-12-18T01:16:06;-4.10;83.90
3075;DHT22;1548;51.716;8.748;2022-12-18T01:18:32;-4.10;83.80
3075;DHT22;1548;51.716;8.748;2022-12-18T01:20:58;-4.10;83.90
3075;DHT22;1548;51.716;8.748;2022-12-18T01:23:27;-4.00;84.00
3075;DHT22;1548;51.716;8.748;2022-12-18T01:25:52;-4.00;83.90
3075;DHT22;1548;51.716;8.748;2022-12-18T01:28:18;-4.10;83.80
3075;DHT22;1548;51.716;8.748;2022-12-18T01:30:43;-4.00;84.00
3075;DHT22;1548;51.716;8.748;2022-12-18T01:33:09;-4.00;83.90
3075;DHT22;1548;51.716;8.748;2022-12-18T01:35:44;-4.10;83.90
3075;DHT22;1548;51.716;8.748;2022-12-18T01:38:09;-4.10;84.00
3075;DHT22;1548;51.716;8.748;2022-12-18T01:40:35;-4.20;84.00
3075;DHT22;1548;51.716;8.748;2022-12-18T01:43:01;-4.10;84.00
3075;DHT22;1548;51.716;8.748;2022-12-18T01:45:29;-4.10;84.10
3075;DHT22;1548;51.716;8.748;2022-12-18T01:48:06;-4.10;84.10
3075;DHT22;1548;51.716;8.748;2022-12-18T01:50:37;-4.10;84.00
3075;DHT22;1548;51.716;8.748;2022-12-18T01:53:14;-4.10;84.00
3075;DHT22;1548;51.716;8.748;2022-12-18T01:55:57;-4.10;84.00
3075;DHT22;1548;51.716;8.748;2022-12-18T01:58:36;-4.10;84.00
3075;DHT22;1548;51.716;8.748;2022-12-18T02:01:04;-4.10;84.00
3075;DHT22;1548;51.716;8.748;2022-12-18T02:03:30;-4.10;84.10
3075;DHT22;1548;51.716;8.748;2022-12-18T02:11:14;-4.20;83.90
3075;DHT22;1548;51.716;8.748;2022-12-18T02:25:12;-4.00;84.00
3075;DHT22;1548;51.716;8.748;2022-12-18T02:27:40;-4.00;83.90
3075;DHT22;1548;51.716;8.748;2022-12-18T02:30:08;-4.00;84.00
3075;DHT22;1548;51.716;8.748;2022-12-18T02:32:37;-3.90;84.00
3075;DHT22;1548;51.716;8.748;2022-12-18T02:35:07;-3.90;83.90
3075;DHT22;1548;51.716;8.748;2022-12-18T02:37:34;-4.00;83.90
3075;DHT22;1548;51.716;8.748;2022-12-18T02:40:01;-3.90;84.00
3075;DHT22;1548;51.716;8.748;2022-12-18T02:42:28;-3.90;84.00
3075;DHT22;1548;51.716;8.748;2022-12-18T02:44:56;-3.90;84.00
3075;DHT22;1548;51.716;8.748;2022-12-18T02:47:24;-3.90;83.90
3075;DHT22;1548;51.716;8.748;2022-12-18T02:52:53;-3.90;84.00
3075;DHT22;1548;51.716;8.748;2022-12-18T02:58:10;-4.10;83.90
3075;DHT22;1548;51.716;8.748;2022-12-18T03:03:19;-4.10;84.10
3075;DHT22;1548;51.716;8.748;2022-12-18T03:05:57;-4.10;84.10
3075;DHT22;1548;51.716;8.748;2022-12-18T03:08:33;-4.10;84.30
3075;DHT22;1548;51.716;8.748;2022-12-18T03:16:00;-4.20;84.00
3075;DHT22;1548;51.716;8.748;2022-12-18T03:18:37;-4.20;84.00
3075;DHT22;1548;51.716;8.748;2022-12-18T03:21:06;-4.20;84.00
3075;DHT22;1548;51.716;8.748;2022-12-18T03:23:44;-4.10;84.20
3075;DHT22;1548;51.716;8.748;2022-12-18T03:26:15;-4.20;83.90
3075;DHT22;1548;51.716;8.748;2022-12-18T03:28:48;-4.20;84.00
3075;DHT22;1548;51.716;8.748;2022-12-18T03:31:16;-4.20;84.10
3075;DHT22;1548;51.716;8.748;2022-12-18T03:33:57;-4.20;84.10
3075;DHT22;1548;51.716;8.748;2022-12-18T03:36:24;-4.20;84.00
3075;DHT22;1548;51.716;8.748;2022-12-18T03:38:50;-4.20;84.10
3075;DHT22;1548;51.716;8.748;2022-12-18T03:41:24;-4.20;84.10
3075;DHT22;1548;51.716;8.748;2022-12-18T03:52:04;-4.20;84.10
3075;DHT22;1548;51.716;8.748;2022-12-18T03:54:33;-4.20;84.20
3075;DHT22;1548;51.716;8.748;2022-12-18T03:57:09;-4.20;84.00
3075;DHT22;1548;51.716;8.748;2022-12-18T03:59:37;-4.20;84.00
3075;DHT22;1548;51.716;8.748;2022-12-18T04:02:05;-4.20;84.00
3075;DHT22;1548;51.716;8.748;2022-12-18T04:04:32;-4.30;84.00
3075;DHT22;1548;51.716;8.748;2022-12-18T04:06:59;-4.30;84.00
3075;DHT22;1548;51.716;8.748;2022-12-18T04:09:25;-4.30;84.20
3075;DHT22;1548;51.716;8.748;2022-12-18T04:11:52;-4.30;84.20
3075;DHT22;1548;51.716;8.748;2022-12-18T04:14:17;-4.30;84.10
3075;DHT22;1548;51.716;8.748;2022-12-18T04:16:43;-4.20;84.20
3075;DHT22;1548;51.716;8.748;2022-12-18T04:19:09;-4.30;84.20
3075;DHT22;1548;51.716;8.748;2022-12-18T04:21:34;-4.30;84.20
3075;DHT22;1548;51.716;8.748;2022-12-18T04:24:00;-4.20;84.20
3075;DHT22;1548;51.716;8.748;2022-12-18T04:26:25;-4.30;84.00
3075;DHT22;1548;51.716;8.748;2022-12-18T04:28:51;-4.20;84.20
3075;DHT22;1548;51.716;8.748;2022-12-18T04:31:16;-4.20;84.10
3075;DHT22;1548;51.716;8.748;2022-12-18T04:33:42;-4.20;84.10
3075;DHT22;1548;51.716;8.748;2022-12-18T04:36:07;-4.20;84.10
3075;DHT22;1548;51.716;8.748;2022-12-18T04:38:33;-4.20;84.20
3075;DHT22;1548;51.716;8.748;2022-12-18T04:41:01;-4.20;84.10
3075;DHT22;1548;51.716;8.748;2022-12-18T04:43:30;-4.10;84.30
3075;DHT22;1548;51.716;8.748;2022-12-18T04:46:04;-4.10;84.10
3075;DHT22;1548;51.716;8.748;2022-12-18T04:48:31;-4.00;84.30
3075;DHT22;1548;51.716;8.748;2022-12-18T04:50:56;-4.10;84.00
3075;DHT22;1548;51.716;8.748;2022-12-18T04:53:22;-4.10;84.10
3075;DHT22;1548;51.716;8.748;2022-12-18T04:55:48;-4.10;84.10
3075;DHT22;1548;51.716;8.748;2022-12-18T04:58:13;-4.10;84.10
3075;DHT22;1548;51.716;8.748;2022-12-18T05:00:39;-4.10;84.00
3075;DHT22;1548;51.716;8.748;2022-12-18T05:03:04;-4.10;84.20
3075;DHT22;1548;51.716;8.748;2022-12-18T05:05:30;-4.20;84.10
3075;DHT22;1548;51.716;8.748;2022-12-18T05:07:56;-4.10;84.30
3075;DHT22;1548;51.716;8.748;2022-12-18T05:10:21;-4.10;84.20
3075;DHT22;1548;51.716;8.748;2022-12-18T05:12:47;-4.10;84.10
3075;DHT22;1548;51.716;8.748;2022-12-18T05:15:31;-4.10;84.10
3075;DHT22;1548;51.716;8.748;2022-12-18T05:17:58;-4.00;84.10
3075;DHT22;1548;51.716;8.748;2022-12-18T05:20:24;-4.00;84.10
3075;DHT22;1548;51.716;8.748;2022-12-18T05:22:51;-4.00;84.10
3075;DHT22;1548;51.716;8.748;2022-12-18T05:25:18;-4.00;84.10
3075;DHT22;1548;51.716;8.748;2022-12-18T05:27:43;-4.00;84.30
3075;DHT22;1548;51.716;8.748;2022-12-18T05:30:10;-3.90;84.30
3075;DHT22;1548;51.716;8.748;2022-12-18T05:32:36;-3.90;84.10
3075;DHT22;1548;51.716;8.748;2022-12-18T05:35:01;-3.90;84.10
3075;DHT22;1548;51.716;8.748;2022-12-18T05:37:27;-4.00;84.10
3075;DHT22;1548;51.716;8.748;2022-12-18T05:39:53;-3.90;84.00
3075;DHT22;1548;51.716;8.748;2022-12-18T05:42:18;-3.90;84.30
3075;DHT22;1548;51.716;8.748;2022-12-18T05:44:44;-3.90;84.20
3075;DHT22;1548;51.716;8.748;2022-12-18T05:47:09;-3.90;84.30
3075;DHT22;1548;51.716;8.748;2022-12-18T05:49:35;-3.90;84.10
3075;DHT22;1548;51.716;8.748;2022-12-18T05:52:01;-3.90;84.10
3075;DHT22;1548;51.716;8.748;2022-12-18T05:54:27;-3.80;84.10
3075;DHT22;1548;51.716;8.748;2022-12-18T05:56:53;-3.80;84.10
3075;DHT22;1548;51.716;8.748;2022-12-18T05:59:19;-3.80;84.20
3075;DHT22;1548;51.716;8.748;2022-12-18T06:01:45;-3.80;84.00
3075;DHT22;1548;51.716;8.748;2022-12-18T06:04:10;-3.70;84.20
3075;DHT22;1548;51.716;8.748;2022-12-18T06:06:36;-3.70;84.10
3075;DHT22;1548;51.716;8.748;2022-12-18T06:09:02;-3.70;84.00
3075;DHT22;1548;51.716;8.748;2022-12-18T06:11:33;-3.70;84.00
3075;DHT22;1548;51.716;8.748;2022-12-18T06:13:59;-3.70;83.80
3075;DHT22;1548;51.716;8.748;2022-12-18T06:16:26;-3.70;83.90
3075;DHT22;1548;51.716;8.748;2022-12-18T06:18:51;-3.70;83.90
3075;DHT22;1548;51.716;8.748;2022-12-18T06:21:17;-3.70;83.80
3075;DHT22;1548;51.716;8.748;2022-12-18T06:23:42;-3.80;83.90
3075;DHT22;1548;51.716;8.748;2022-12-18T06:26:10;-3.80;83.90
3075;DHT22;1548;51.716;8.748;2022-12-18T06:28:36;-3.80;83.90
3075;DHT22;1548;51.716;8.748;2022-12-18T06:31:03;-3.80;83.90
3075;DHT22;1548;51.716;8.748;2022-12-18T06:33:30;-3.80;84.00
3075;DHT22;1548;51.716;8.748;2022-12-18T06:36:10;-3.80;83.90
3075;DHT22;1548;51.716;8.748;2022-12-18T06:38:37;-3.90;83.90
3075;DHT22;1548;51.716;8.748;2022-12-18T06:41:21;-3.90;83.90
3075;DHT22;1548;51.716;8.748;2022-12-18T06:43:47;-3.90;83.90
3075;DHT22;1548;51.716;8.748;2022-12-18T06:46:12;-4.00;83.80
3075;DHT22;1548;51.716;8.748;2022-12-18T06:48:38;-4.00;83.90
3075;DHT22;1548;51.716;8.748;2022-12-18T06:51:04;-4.00;83.90
3075;DHT22;1548;51.716;8.748;2022-12-18T06:53:31;-4.00;83.90
3075;DHT22;1548;51.716;8.748;2022-12-18T06:56:05;-3.90;83.80
3075;DHT22;1548;51.716;8.748;2022-12-18T06:58:30;-3.90;83.80
3075;DHT22;1548;51.716;8.748;2022-12-18T07:01:00;-3.90;83.90
3075;DHT22;1548;51.716;8.748;2022-12-18T07:03:26;-3.90;83.80
3075;DHT22;1548;51.716;8.748;2022-12-18T07:05:52;-4.00;83.80
3075;DHT22;1548;51.716;8.748;2022-12-18T07:08:18;-4.00;83.70
3075;DHT22;1548;51.716;8.748;2022-12-18T07:10:44;-4.00;83.90
3075;DHT22;1548;51.716;8.748;2022-12-18T07:13:10;-4.00;83.80
3075;DHT22;1548;51.716;8.748;2022-12-18T07:15:35;-3.90;83.90
3075;DHT22;1548;51.716;8.748;2022-12-18T07:18:01;-3.90;83.90
3075;DHT22;1548;51.716;8.748;2022-12-18T07:20:27;-4.00;83.70
3075;DHT22;1548;51.716;8.748;2022-12-18T07:22:52;-3.90;83.80
3075;DHT22;1548;51.716;8.748;2022-12-18T07:25:18;-3.90;83.70
3075;DHT22;1548;51.716;8.748;2022-12-18T07:27:43;-3.90;83.80
3075;DHT22;1548;51.716;8.748;2022-12-18T07:30:09;-3.90;83.90
3075;DHT22;1548;51.716;8.748;2022-12-18T07:32:35;-3.90;83.80
3075;DHT22;1548;51.716;8.748;2022-12-18T07:35:01;-3.90;83.80
3075;DHT22;1548;51.716;8.748;2022-12-18T07:37:26;-3.90;83.90
3075;DHT22;1548;51.716;8.748;2022-12-18T07:39:52;-4.00;83.80
3075;DHT22;1548;51.716;8.748;2022-12-18T07:42:18;-4.00;83.80
3075;DHT22;1548;51.716;8.748;2022-12-18T07:44:56;-4.00;83.90
3075;DHT22;1548;51.716;8.748;2022-12-18T07:47:21;-4.00;83.90
3075;DHT22;1548;51.716;8.748;2022-12-18T07:49:47;-4.00;83.80
3075;DHT22;1548;51.716;8.748;2022-12-18T07:52:13;-3.90;83.90
3075;DHT22;1548;51.716;8.748;2022-12-18T07:54:39;-3.90;83.90
3075;DHT22;1548;51.716;8.748;2022-12-18T07:57:05;-3.80;84.00
3075;DHT22;1548;51.716;8.748;2022-12-18T07:59:31;-3.80;83.80
3075;DHT22;1548;51.716;8.748;2022-12-18T08:01:57;-3.90;83.80
3075;DHT22;1548;51.716;8.748;2022-12-18T08:04:24;-3.90;83.60
3075;DHT22;1548;51.716;8.748;2022-12-18T08:06:49;-3.90;83.70
3075;DHT22;1548;51.716;8.748;2022-12-18T08:09:15;-3.90;83.70
3075;DHT22;1548;51.716;8.748;2022-12-18T08:11:40;-4.00;83.70
3075;DHT22;1548;51.716;8.748;2022-12-18T08:14:06;-4.00;83.70
3075;DHT22;1548;51.716;8.748;2022-12-18T08:16:32;-4.00;83.80
3075;DHT22;1548;51.716;8.748;2022-12-18T08:18:57;-4.00;83.80
3075;DHT22;1548;51.716;8.748;2022-12-18T08:21:26;-4.00;83.70
3075;DHT22;1548;51.716;8.748;2022-12-18T08:23:54;-3.90;83.70
3075;DHT22;1548;51.716;8.748;2022-12-18T08:26:20;-3.90;83.70
3075;DHT22;1548;51.716;8.748;2022-12-18T08:28:46;-3.90;83.70
3075;DHT22;1548;51.716;8.748;2022-12-18T08:31:15;-3.80;83.60
3075;DHT22;1548;51.716;8.748;2022-12-18T08:33:41;-3.80;83.80
3075;DHT22;1548;51.716;8.748;2022-12-18T08:36:08;-3.70;83.80
3075;DHT22;1548;51.716;8.748;2022-12-18T08:38:35;-3.70;83.50
3075;DHT22;1548;51.716;8.748;2022-12-18T08:41:01;-3.60;83.40
3075;DHT22;1548;51.716;8.748;2022-12-18T08:43:27;-3.50;83.40
3075;DHT22;1548;51.716;8.748;2022-12-18T08:46:12;-3.40;83.50
3075;DHT22;1548;51.716;8.748;2022-12-18T08:48:44;-3.30;83.40
3075;DHT22;1548;51.716;8.748;2022-12-18T08:51:09;-3.30;83.20
3075;DHT22;1548;51.716;8.748;2022-12-18T08:53:36;-3.20;83.10
3075;DHT22;1548;51.716;8.748;2022-12-18T08:56:03;-3.20;82.80
3075;DHT22;1548;51.716;8.748;2022-12-18T08:58:29;-3.10;82.80
3075;DHT22;1548;51.716;8.748;2022-12-18T09:01:03;-3.20;82.70
3075;DHT22;1548;51.716;8.748;2022-12-18T09:03:30;-3.20;82.80
3075;DHT22;1548;51.716;8.748;2022-12-18T09:05:55;-3.10;82.70
3075;DHT22;1548;51.716;8.748;2022-12-18T09:08:21;-3.10;82.70
3075;DHT22;1548;51.716;8.748;2022-12-18T09:10:48;-3.10;82.80
3075;DHT22;1548;51.716;8.748;2022-12-18T09:13:15;-3.10;82.70
3075;DHT22;1548;51.716;8.748;2022-12-18T09:15:42;-3.10;82.80
3075;DHT22;1548;51.716;8.748;2022-12-18T09:18:08;-3.00;82.70
3075;DHT22;1548;51.716;8.748;2022-12-18T09:20:35;-3.00;82.60
3075;DHT22;1548;51.716;8.748;2022-12-18T09:23:01;-3.00;82.60
3075;DHT22;1548;51.716;8.748;2022-12-18T09:25:29;-2.90;82.70
3075;DHT22;1548;51.716;8.748;2022-12-18T09:28:13;-2.80;82.70
3075;DHT22;1548;51.716;8.748;2022-12-18T09:30:45;-2.70;82.60
3075;DHT22;1548;51.716;8.748;2022-12-18T09:33:11;-2.70;82.20
3075;DHT22;1548;51.716;8.748;2022-12-18T09:35:39;-2.70;82.20
3075;DHT22;1548;51.716;8.748;2022-12-18T09:38:04;-2.50;82.30
3075;DHT22;1548;51.716;8.748;2022-12-18T09:40:36;-2.60;82.00
3075;DHT22;1548;51.716;8.748;2022-12-18T09:43:05;-2.60;82.00
3075;DHT22;1548;51.716;8.748;2022-12-18T09:45:41;-2.70;81.90
3075;DHT22;1548;51.716;8.748;2022-12-18T09:48:19;-2.70;82.10
3075;DHT22;1548;51.716;8.748;2022-12-18T09:50:47;-2.60;82.20
3075;DHT22;1548;51.716;8.748;2022-12-18T09:53:21;-2.60;82.20
3075;DHT22;1548;51.716;8.748;2022-12-18T09:55:48;-2.70;82.10
3075;DHT22;1548;51.716;8.748;2022-12-18T09:58:33;-2.60;82.20
3075;DHT22;1548;51.716;8.748;2022-12-18T10:01:01;-2.50;82.30
3075;DHT22;1548;51.716;8.748;2022-12-18T10:03:27;-2.60;81.90
3075;DHT22;1548;51.716;8.748;2022-12-18T10:08:49;-2.40;81.90
3075;DHT22;1548;51.716;8.748;2022-12-18T10:14:19;-2.20;81.90
3075;DHT22;1548;51.716;8.748;2022-12-18T10:16:58;-2.20;81.60
3075;DHT22;1548;51.716;8.748;2022-12-18T10:27:45;-1.90;81.00
3075;DHT22;1548;51.716;8.748;2022-12-18T10:30:19;-1.90;81.00
3075;DHT22;1548;51.716;8.748;2022-12-18T10:32:45;-2.00;80.90
3075;DHT22;1548;51.716;8.748;2022-12-18T10:35:26;-2.00;80.80
3075;DHT22;1548;51.716;8.748;2022-12-18T10:43:22;-2.10;80.90
3075;DHT22;1548;51.716;8.748;2022-12-18T10:48:40;-1.90;81.20
3075;DHT22;1548;51.716;8.748;2022-12-18T10:51:07;-1.90;80.80
3075;DHT22;1548;51.716;8.748;2022-12-18T10:53:35;-1.80;80.90
3075;DHT22;1548;51.716;8.748;2022-12-18T10:56:04;-1.80;80.70
3075;DHT22;1548;51.716;8.748;2022-12-18T10:58:38;-1.90;80.70
3075;DHT22;1548;51.716;8.748;2022-12-18T11:03:45;-1.90;81.00
3075;DHT22;1548;51.716;8.748;2022-12-18T11:06:18;-1.90;80.60
3075;DHT22;1548;51.716;8.748;2022-12-18T11:09:01;-1.90;80.70
3075;DHT22;1548;51.716;8.748;2022-12-18T11:11:27;-1.80;80.80
3075;DHT22;1548;51.716;8.748;2022-12-18T11:14:01;-1.70;80.50
3075;DHT22;1548;51.716;8.748;2022-12-18T11:16:28;-1.80;80.60
3075;DHT22;1548;51.716;8.748;2022-12-18T11:19:19;-1.70;80.60
3075;DHT22;1548;51.716;8.748;2022-12-18T11:21:47;-1.80;80.50
3075;DHT22;1548;51.716;8.748;2022-12-18T11:24:33;-1.80;80.50
3075;DHT22;1548;51.716;8.748;2022-12-18T11:27:05;-1.80;80.50
3075;DHT22;1548;51.716;8.748;2022-12-18T11:29:39;-1.60;80.70
3075;DHT22;1548;51.716;8.748;2022-12-18T11:32:42;-1.60;80.50
3075;DHT22;1548;51.716;8.748;2022-12-18T11:35:32;-1.40;80.30
3075;DHT22;1548;51.716;8.748;2022-12-18T11:38:11;-1.30;79.90
3075;DHT22;1548;51.716;8.748;2022-12-18T11:40:41;-1.20;79.60
3075;DHT22;1548;51.716;8.748;2022-12-18T11:43:13;-1.30;79.30
3075;DHT22;1548;51.716;8.748;2022-12-18T11:45:49;-1.20;79.50
3075;DHT22;1548;51.716;8.748;2022-12-18T11:48:30;-1.20;79.30
3075;DHT22;1548;51.716;8.748;2022-12-18T11:51:00;-1.20;79.20
3075;DHT22;1548;51.716;8.748;2022-12-18T11:53:27;-1.00;79.00
3075;DHT22;1548;51.716;8.748;2022-12-18T11:56:15;-0.90;78.90
3075;DHT22;1548;51.716;8.748;2022-12-18T11:58:47;-0.70;78.40
3075;DHT22;1548;51.716;8.748;2022-12-18T12:14:33;-0.70;78.40
3075;DHT22;1548;51.716;8.748;2022-12-18T12:22:51;-0.70;78.20
3075;DHT22;1548;51.716;8.748;2022-12-18T12:30:59;-0.60;78.30
3075;DHT22;1548;51.716;8.748;2022-12-18T12:38:55;-0.30;77.60
3075;DHT22;1548;51.716;8.748;2022-12-18T12:41:25;-0.40;77.40
3075;DHT22;1548;51.716;8.748;2022-12-18T12:44:16;-0.30;78.00
3075;DHT22;1548;51.716;8.748;2022-12-18T12:46:44;-0.20;77.00
3075;DHT22;1548;51.716;8.748;2022-12-18T12:49:16;-0.30;76.70
3075;DHT22;1548;51.716;8.748;2022-12-18T12:51:47;-0.20;77.10
3075;DHT22;1548;51.716;8.748;2022-12-18T12:54:23;-0.20;77.10
3075;DHT22;1548;51.716;8.748;2022-12-18T12:56:57;-0.10;76.50
3075;DHT22;1548;51.716;8.748;2022-12-18T12:59:56;-0.10;76.30
3075;DHT22;1548;51.716;8.748;2022-12-18T13:08:09;0.00;75.90
3075;DHT22;1548;51.716;8.748;2022-12-18T13:10:38;-0.10;76.20
3075;DHT22;1548;51.716;8.748;2022-12-18T13:13:08;-0.10;76.70
3075;DHT22;1548;51.716;8.748;2022-12-18T13:23:38;-0.10;76.20
3075;DHT22;1548;51.716;8.748;2022-12-18T13:34:26;-0.10;77.00
3075;DHT22;1548;51.716;8.748;2022-12-18T13:36:53;-0.10;76.60
3075;DHT22;1548;51.716;8.748;2022-12-18T13:41:51;-0.20;76.90
3075;DHT22;1548;51.716;8.748;2022-12-18T13:44:24;-0.30;76.90
3075;DHT22;1548;51.716;8.748;2022-12-18T13:46:51;-0.40;77.10
3075;DHT22;1548;51.716;8.748;2022-12-18T13:51:55;-0.40;77.50
3075;DHT22;1548;51.716;8.748;2022-12-18T13:54:27;-0.40;77.60
3075;DHT22;1548;51.716;8.748;2022-12-18T13:56:54;-0.30;77.60
3075;DHT22;1548;51.716;8.748;2022-12-18T13:59:24;-0.40;77.50
3075;DHT22;1548;51.716;8.748;2022-12-18T14:01:59;-0.50;77.60
3075;DHT22;1548;51.716;8.748;2022-12-18T14:07:03;-0.50;77.60
3075;DHT22;1548;51.716;8.748;2022-12-18T14:09:34;-0.40;77.80
3075;DHT22;1548;51.716;8.748;2022-12-18T14:12:00;-0.40;77.90
3075;DHT22;1548;51.716;8.748;2022-12-18T14:14:49;-0.50;78.10
3075;DHT22;1548;51.716;8.748;2022-12-18T14:17:16;-0.40;78.30
3075;DHT22;1548;51.716;8.748;2022-12-18T14:19:44;-0.40;78.20
3075;DHT22;1548;51.716;8.748;2022-12-18T14:22:17;-0.30;78.10
3075;DHT22;1548;51.716;8.748;2022-12-18T14:24:43;-0.30;78.10
3075;DHT22;1548;51.716;8.748;2022-12-18T14:27:26;-0.40;77.80
3075;DHT22;1548;51.716;8.748;2022-12-18T14:29:52;-0.40;78.00
3075;DHT22;1548;51.716;8.748;2022-12-18T14:32:19;-0.40;78.20
3075;DHT22;1548;51.716;8.748;2022-12-18T14:34:53;-0.40;78.00
3075;DHT22;1548;51.716;8.748;2022-12-18T14:37:27;-0.30;77.80
3075;DHT22;1548;51.716;8.748;2022-12-18T14:40:00;-0.30;78.00
3075;DHT22;1548;51.716;8.748;2022-12-18T14:42:30;-0.40;78.20
3075;DHT22;1548;51.716;8.748;2022-12-18T14:48:00;-0.50;78.40
3075;DHT22;1548;51.716;8.748;2022-12-18T14:50:26;-0.60;78.70
3075;DHT22;1548;51.716;8.748;2022-12-18T14:52:52;-0.70;79.10
3075;DHT22;1548;51.716;8.748;2022-12-18T14:55:19;-0.80;79.20
3075;DHT22;1548;51.716;8.748;2022-12-18T14:57:50;-0.70;79.40
3075;DHT22;1548;51.716;8.748;2022-12-18T15:00:19;-0.80;79.30
3075;DHT22;1548;51.716;8.748;2022-12-18T15:02:50;-0.70;79.40
3075;DHT22;1548;51.716;8.748;2022-12-18T15:07:53;-0.70;79.60
3075;DHT22;1548;51.716;8.748;2022-12-18T15:26:05;-0.60;79.30
3075;DHT22;1548;51.716;8.748;2022-12-18T15:31:28;-0.50;79.50
3075;DHT22;1548;51.716;8.748;2022-12-18T15:36:18;-0.60;78.70
3075;DHT22;1548;51.716;8.748;2022-12-18T15:38:48;-0.60;78.60
3075;DHT22;1548;51.716;8.748;2022-12-18T15:41:16;-0.50;78.70
3075;DHT22;1548;51.716;8.748;2022-12-18T15:43:42;-0.40;78.30
3075;DHT22;1548;51.716;8.748;2022-12-18T15:46:15;-0.40;78.20
3075;DHT22;1548;51.716;8.748;2022-12-18T15:48:45;-0.30;77.90
3075;DHT22;1548;51.716;8.748;2022-12-18T15:51:17;-0.20;77.60
3075;DHT22;1548;51.716;8.748;2022-12-18T15:53:44;-0.30;77.40
3075;DHT22;1548;51.716;8.748;2022-12-18T15:56:11;-0.40;77.00
3075;DHT22;1548;51.716;8.748;2022-12-18T15:58:56;-0.40;77.10
3075;DHT22;1548;51.716;8.748;2022-12-18T16:01:27;-0.40;77.10
3075;DHT22;1548;51.716;8.748;2022-12-18T16:03:55;-0.50;77.40
3075;DHT22;1548;51.716;8.748;2022-12-18T16:06:24;-0.60;77.50
3075;DHT22;1548;51.716;8.748;2022-12-18T16:08:50;-0.60;77.80
3075;DHT22;1548;51.716;8.748;2022-12-18T16:11:25;-0.70;78.10
3075;DHT22;1548;51.716;8.748;2022-12-18T16:14:18;-0.60;78.20
3075;DHT22;1548;51.716;8.748;2022-12-18T16:16:46;-0.70;78.30
3075;DHT22;1548;51.716;8.748;2022-12-18T16:19:11;-0.70;78.40
3075;DHT22;1548;51.716;8.748;2022-12-18T16:21:37;-0.70;78.70
3075;DHT22;1548;51.716;8.748;2022-12-18T16:24:03;-0.70;78.70
3075;DHT22;1548;51.716;8.748;2022-12-18T16:26:29;-0.70;78.60
3075;DHT22;1548;51.716;8.748;2022-12-18T16:28:55;-0.70;78.80
3075;DHT22;1548;51.716;8.748;2022-12-18T16:31:20;-0.70;78.80
3075;DHT22;1548;51.716;8.748;2022-12-18T16:33:46;-0.80;78.80
3075;DHT22;1548;51.716;8.748;2022-12-18T16:36:12;-0.80;79.00
3075;DHT22;1548;51.716;8.748;2022-12-18T16:38:38;-0.80;79.00
3075;DHT22;1548;51.716;8.748;2022-12-18T16:41:17;-0.80;79.00
3075;DHT22;1548;51.716;8.748;2022-12-18T16:44:02;-0.80;79.20
3075;DHT22;1548;51.716;8.748;2022-12-18T16:46:28;-0.80;79.20
3075;DHT22;1548;51.716;8.748;2022-12-18T16:48:54;-0.80;79.30
3075;DHT22;1548;51.716;8.748;2022-12-18T16:51:21;-0.90;79.30
3075;DHT22;1548;51.716;8.748;2022-12-18T16:53:47;-0.90;79.40
3075;DHT22;1548;51.716;8.748;2022-12-18T16:56:13;-0.90;79.40
3075;DHT22;1548;51.716;8.748;2022-12-18T16:58:38;-1.00;79.50
3075;DHT22;1548;51.716;8.748;2022-12-18T17:01:09;-1.00;79.70
3075;DHT22;1548;51.716;8.748;2022-12-18T17:03:34;-1.00;79.90
3075;DHT22;1548;51.716;8.748;2022-12-18T17:06:04;-1.10;79.70
3075;DHT22;1548;51.716;8.748;2022-12-18T17:08:30;-1.20;80.00
3075;DHT22;1548;51.716;8.748;2022-12-18T17:11:02;-1.10;79.90
3075;DHT22;1548;51.716;8.748;2022-12-18T17:13:27;-1.10;79.90
3075;DHT22;1548;51.716;8.748;2022-12-18T17:15:53;-1.10;79.90
3075;DHT22;1548;51.716;8.748;2022-12-18T17:18:19;-1.10;79.90
3075;DHT22;1548;51.716;8.748;2022-12-18T17:20:45;-1.20;79.90
3075;DHT22;1548;51.716;8.748;2022-12-18T17:23:11;-1.10;80.00
3075;DHT22;1548;51.716;8.748;2022-12-18T17:25:39;-1.00;79.70
3075;DHT22;1548;51.716;8.748;2022-12-18T17:28:04;-1.00;79.50
3075;DHT22;1548;51.716;8.748;2022-12-18T17:30:30;-1.00;79.40
3075;DHT22;1548;51.716;8.748;2022-12-18T17:32:56;-1.00;79.10
3075;DHT22;1548;51.716;8.748;2022-12-18T17:35:21;-1.00;79.10
3075;DHT22;1548;51.716;8.748;2022-12-18T17:37:47;-1.00;79.00
3075;DHT22;1548;51.716;8.748;2022-12-18T17:40:13;-0.90;78.80
3075;DHT22;1548;51.716;8.748;2022-12-18T17:42:38;-0.90;78.80
3075;DHT22;1548;51.716;8.748;2022-12-18T17:45:04;-1.00;78.60
3075;DHT22;1548;51.716;8.748;2022-12-18T17:47:32;-1.00;78.90
3075;DHT22;1548;51.716;8.748;2022-12-18T17:49:58;-1.10;79.10
3075;DHT22;1548;51.716;8.748;2022-12-18T17:52:23;-1.10;79.30
3075;DHT22;1548;51.716;8.748;2022-12-18T17:54:49;-1.10;78.90
3075;DHT22;1548;51.716;8.748;2022-12-18T17:57:14;-1.10;79.20
3075;DHT22;1548;51.716;8.748;2022-12-18T17:59:40;-1.10;79.20
3075;DHT22;1548;51.716;8.748;2022-12-18T18:02:06;-1.20;79.40
3075;DHT22;1548;51.716;8.748;2022-12-18T18:04:31;-1.20;79.50
3075;DHT22;1548;51.716;8.748;2022-12-18T18:06:57;-1.10;79.50
3075;DHT22;1548;51.716;8.748;2022-12-18T18:09:22;-1.20;79.50
3075;DHT22;1548;51.716;8.748;2022-12-18T18:11:48;-1.20;79.60
3075;DHT22;1548;51.716;8.748;2022-12-18T18:14:32;-1.20;79.90
3075;DHT22;1548;51.716;8.748;2022-12-18T18:16:58;-1.20;79.90
3075;DHT22;1548;51.716;8.748;2022-12-18T18:19:23;-1.20;80.00
3075;DHT22;1548;51.716;8.748;2022-12-18T18:21:51;-1.30;80.10
3075;DHT22;1548;51.716;8.748;2022-12-18T18:24:19;-1.30;80.10
3075;DHT22;1548;51.716;8.748;2022-12-18T18:26:47;-1.40;80.40
3075;DHT22;1548;51.716;8.748;2022-12-18T18:29:16;-1.40;80.40
3075;DHT22;1548;51.716;8.748;2022-12-18T18:31:41;-1.40;80.30
3075;DHT22;1548;51.716;8.748;2022-12-18T18:34:12;-1.40;80.70
3075;DHT22;1548;51.716;8.748;2022-12-18T18:36:38;-1.50;80.80
3075;DHT22;1548;51.716;8.748;2022-12-18T18:39:03;-1.40;80.90
3075;DHT22;1548;51.716;8.748;2022-12-18T18:41:29;-1.40;80.90
3075;DHT22;1548;51.716;8.748;2022-12-18T18:43:56;-1.40;81.00